Time;durP1;ratioP1;P1;durP2;ratioP2;P2;SDS_P1;SDS_P2;PMS_P1;PMS_P2;Temp;Humidity;BMP_temperature;BMP_pressure;BME280_temperature;BME280_humidity;BME280_pressure;Samples;Min_cycle;Max_cycle;Signal;HPM_P1;HPM_P2
2023/04/13 00:01:00;;;;;;;3.17;1.83;;;6.90;99.90;;;;;;5105122;27;20043;-70
2023/04/13 00:06:10;;;;;;;3.55;1.73;;;6.90;99.90;;;;;;5110380;27;20049;-68
2023/04/13 00:08:36;;;;;;;3.78;2.33;;;6.90;99.90;;;;;;5109101;27;20047;-70
2023/04/13 00:11:03;;;;;;;5.88;1.95;;;6.90;99.90;;;;;;5105841;28;20515;-66
2023/04/13 00:13:29;;;;;;;3.47;1.38;;;6.90;99.90;;;;;;5126937;27;20047;-68
2023/04/13 00:15:55;;;;;;;4.45;1.80;;;6.90;99.90;;;;;;5102919;27;20031;-68
2023/04/13 00:18:20;;;;;;;3.10;1.58;;;6.90;99.90;;;;;;5107892;27;20040;-67
2023/04/13 00:20:46;;;;;;;3.25;1.70;;;6.80;99.90;;;;;;5104318;27;20047;-68
2023/04/13 00:23:12;;;;;;;3.83;1.60;;;6.80;99.90;;;;;;5083627;27;20143;-69
2023/04/13 00:25:37;;;;;;;2.00;1.73;;;6.80;99.90;;;;;;5124026;27;20484;-69
2023/04/13 00:28:05;;;;;;;1.83;1.40;;;6.70;99.90;;;;;;5106231;27;20569;-66
2023/04/13 00:30:31;;;;;;;2.65;1.30;;;6.70;99.90;;;;;;5103324;27;20046;-67
2023/04/13 00:32:56;;;;;;;2.85;1.40;;;6.60;99.90;;;;;;5111060;27;20034;-67
2023/04/13 00:35:25;;;;;;;2.65;1.38;;;6.60;99.90;;;;;;5102299;27;20038;-67
2023/04/13 00:37:51;;;;;;;4.57;1.10;;;6.50;99.90;;;;;;5085378;27;20638;-69
2023/04/13 00:40:17;;;;;;;3.05;1.35;;;6.50;99.90;;;;;;5112220;27;20051;-70
2023/04/13 00:42:48;;;;;;;4.38;1.02;;;6.40;99.90;;;;;;5115097;27;20050;-70
2023/04/13 00:45:14;;;;;;;3.17;1.00;;;6.40;99.90;;;;;;5112483;27;20050;-69
2023/04/13 00:47:42;;;;;;;3.40;1.20;;;6.30;99.90;;;;;;5129030;27;20046;-69
2023/04/13 00:50:08;;;;;;;3.63;1.05;;;6.30;99.90;;;;;;5122362;27;20493;-68
2023/04/13 00:52:38;;;;;;;2.25;1.30;;;6.30;99.90;;;;;;5117443;27;20042;-69
2023/04/13 00:55:05;;;;;;;1.50;0.80;;;6.20;99.90;;;;;;5112161;27;20046;-66
2023/04/13 00:57:32;;;;;;;1.85;0.90;;;6.20;99.90;;;;;;5102460;27;20511;-67
2023/04/13 01:00:05;;;;;;;1.92;0.90;;;6.20;99.90;;;;;;5114320;27;20493;-67
2023/04/13 01:02:31;;;;;;;3.13;1.05;;;6.20;99.90;;;;;;5139371;27;20055;-70
2023/04/13 01:04:57;;;;;;;2.83;1.00;;;6.10;99.90;;;;;;5121502;27;20466;-69
2023/04/13 01:07:43;;;;;;;2.95;1.27;;;6.20;99.90;;;;;;5119570;27;20129;-67
2023/04/13 01:10:28;;;;;;;3.10;1.60;;;6.20;99.90;;;;;;5105063;27;20044;-67
2023/04/13 01:13:19;;;;;;;2.33;1.08;;;6.20;99.90;;;;;;5111030;27;20042;-69
2023/04/13 01:16:11;;;;;;;3.53;1.42;;;6.20;99.90;;;;;;5113596;27;20043;-70
2023/04/13 01:18:39;;;;;;;2.45;1.30;;;6.20;99.90;;;;;;5111508;28;20038;-70
2023/04/13 01:21:07;;;;;;;1.77;1.10;;;6.20;99.90;;;;;;5093500;28;20509;-67
2023/04/13 01:23:33;;;;;;;2.63;1.33;;;6.20;99.90;;;;;;5109857;27;20039;-69
2023/04/13 01:26:02;;;;;;;3.35;1.20;;;6.20;99.90;;;;;;5113206;27;20110;-68
2023/04/13 01:28:29;;;;;;;2.83;1.20;;;6.20;99.90;;;;;;5119682;27;20418;-69
2023/04/13 01:30:59;;;;;;;1.90;1.20;;;6.20;99.90;;;;;;5114695;27;20068;-69
2023/04/13 01:33:24;;;;;;;1.63;1.17;;;6.20;99.90;;;;;;5105859;27;20054;-69
2023/04/13 01:35:51;;;;;;;2.15;1.10;;;6.20;99.90;;;;;;5110139;27;20043;-68
2023/04/13 01:38:23;;;;;;;4.38;1.33;;;6.20;99.90;;;;;;5110349;27;20027;-69
2023/04/13 01:40:49;;;;;;;5.30;1.20;;;6.20;99.90;;;;;;5127330;27;20089;-67
2023/04/13 01:43:15;;;;;;;3.55;1.33;;;6.20;99.90;;;;;;5111801;27;20077;-69
2023/04/13 01:45:52;;;;;;;2.17;1.00;;;6.20;99.90;;;;;;5105322;27;20069;-69
2023/04/13 01:48:39;;;;;;;5.55;1.17;;;6.20;99.90;;;;;;5107634;27;20049;-66
2023/04/13 01:51:20;;;;;;;1.77;0.90;;;6.20;99.90;;;;;;5091752;27;20070;-69
2023/04/13 01:54:00;;;;;;;2.85;0.90;;;6.20;99.90;;;;;;5103058;27;20039;-69
2023/04/13 01:56:27;;;;;;;2.17;1.00;;;6.20;99.90;;;;;;5103623;27;20230;-66
2023/04/13 01:58:56;;;;;;;3.40;1.00;;;6.20;99.90;;;;;;5099355;27;20049;-67
2023/04/13 02:01:24;;;;;;;4.57;1.10;;;6.20;99.90;;;;;;5105283;27;20578;-68
2023/04/13 02:03:50;;;;;;;1.70;0.80;;;6.20;99.90;;;;;;5122106;27;20039;-67
2023/04/13 02:06:16;;;;;;;4.72;1.17;;;6.20;99.90;;;;;;5135384;27;20031;-69
2023/04/13 02:08:41;;;;;;;3.78;1.08;;;6.20;99.90;;;;;;5110383;27;20073;-71
2023/04/13 02:11:07;;;;;;;2.72;1.13;;;6.10;99.90;;;;;;5114488;27;20077;-70
2023/04/13 02:13:33;;;;;;;1.83;1.00;;;6.10;99.90;;;;;;5119870;27;20117;-68
2023/04/13 02:15:59;;;;;;;2.88;0.95;;;6.10;99.90;;;;;;5113824;27;20544;-69
2023/04/13 02:18:25;;;;;;;2.30;0.80;;;6.10;99.90;;;;;;5103294;27;20074;-71
2023/04/13 02:21:06;;;;;;;1.70;0.90;;;6.10;99.90;;;;;;5123092;27;20066;-68
2023/04/13 02:23:33;;;;;;;3.22;1.00;;;6.10;99.90;;;;;;5104076;27;20051;-67
2023/04/13 02:25:59;;;;;;;2.90;1.15;;;6.10;99.90;;;;;;5124759;27;20481;-69
2023/04/13 02:28:27;;;;;;;4.88;1.00;;;6.10;99.90;;;;;;5137016;27;20031;-67
2023/04/13 02:30:58;;;;;;;2.05;0.90;;;6.00;99.90;;;;;;5104843;27;20038;-70
2023/04/13 02:33:29;;;;;;;6.28;1.00;;;6.00;99.90;;;;;;5104573;27;20485;-69
2023/04/13 02:35:54;;;;;;;4.28;1.52;;;6.10;99.90;;;;;;5108087;27;20042;-66
2023/04/13 02:38:20;;;;;;;3.60;1.23;;;6.00;99.90;;;;;;5111417;27;20073;-70
2023/04/13 02:40:46;;;;;;;4.05;1.10;;;6.10;99.90;;;;;;5117708;27;20054;-66
2023/04/13 02:43:11;;;;;;;3.55;1.38;;;6.00;99.90;;;;;;5116030;27;20039;-69
2023/04/13 02:45:41;;;;;;;3.72;1.17;;;6.10;99.90;;;;;;5118962;27;20031;-71
2023/04/13 02:48:09;;;;;;;2.33;1.20;;;6.10;99.90;;;;;;5120971;27;20042;-70
2023/04/13 02:50:35;;;;;;;2.72;1.42;;;6.10;99.90;;;;;;5127417;27;20058;-70
2023/04/13 02:53:00;;;;;;;2.65;1.23;;;6.10;99.90;;;;;;5130923;27;20469;-70
2023/04/13 02:55:26;;;;;;;1.73;1.10;;;6.10;99.90;;;;;;5103198;27;20124;-69
2023/04/13 02:57:53;;;;;;;1.95;1.27;;;6.10;99.90;;;;;;5105307;27;20039;-67
2023/04/13 03:00:19;;;;;;;4.95;1.83;;;6.00;99.90;;;;;;5120375;27;20082;-67
2023/04/13 03:02:45;;;;;;;1.50;1.00;;;6.10;99.90;;;;;;5112834;27;20409;-70
2023/04/13 03:05:12;;;;;;;1.90;1.20;;;6.10;99.90;;;;;;5105697;27;20054;-66
2023/04/13 03:07:38;;;;;;;3.10;1.10;;;6.10;99.90;;;;;;5122504;27;20042;-68
2023/04/13 03:10:04;;;;;;;4.55;1.30;;;6.10;99.90;;;;;;5124512;27;20031;-66
2023/04/13 03:12:31;;;;;;;2.50;1.15;;;6.00;99.90;;;;;;5105299;27;20027;-68
2023/04/13 03:15:02;;;;;;;3.92;1.30;;;6.10;99.90;;;;;;5108514;27;20047;-70
2023/04/13 03:17:31;;;;;;;1.98;1.17;;;6.10;99.90;;;;;;5105287;27;20039;-68
2023/04/13 03:19:57;;;;;;;1.35;1.25;;;6.00;99.90;;;;;;5104124;27;20500;-69
2023/04/13 03:22:24;;;;;;;2.10;1.60;;;6.00;99.90;;;;;;5101406;27;20123;-65
2023/04/13 03:24:51;;;;;;;1.58;1.08;;;6.10;99.90;;;;;;5102713;27;20054;-69
2023/04/13 03:27:16;;;;;;;3.50;1.30;;;6.10;99.90;;;;;;5105143;27;20343;-69
2023/04/13 03:29:42;;;;;;;2.95;1.33;;;6.10;99.90;;;;;;5107806;27;20042;-67
2023/04/13 03:32:08;;;;;;;3.70;1.40;;;6.10;99.90;;;;;;5142516;27;20046;-66
2023/04/13 03:34:33;;;;;;;2.88;1.20;;;6.10;99.90;;;;;;5104317;27;20060;-68
2023/04/13 03:36:59;;;;;;;3.15;1.20;;;6.10;99.90;;;;;;5104104;27;20034;-70
2023/04/13 03:39:25;;;;;;;1.45;1.30;;;6.00;99.90;;;;;;5113944;27;20030;-71
2023/04/13 03:41:50;;;;;;;3.67;1.30;;;6.10;99.90;;;;;;5107908;27;20039;-69
2023/04/13 03:44:16;;;;;;;1.48;1.30;;;6.10;99.90;;;;;;5099849;27;20050;-67
2023/04/13 03:46:42;;;;;;;3.80;1.42;;;6.00;99.90;;;;;;5125769;27;20054;-66
2023/04/13 03:49:09;;;;;;;1.95;1.13;;;6.10;99.90;;;;;;5104007;27;21478;-69
2023/04/13 03:51:38;;;;;;;1.73;1.45;;;6.10;99.90;;;;;;5105992;27;20050;-71
2023/04/13 03:54:04;;;;;;;3.08;1.20;;;6.10;99.90;;;;;;5105164;27;20046;-69
2023/04/13 03:56:30;;;;;;;1.55;1.10;;;6.10;99.90;;;;;;5123822;27;20031;-67
2023/04/13 03:58:56;;;;;;;5.70;2.10;;;6.10;99.90;;;;;;5102194;27;20055;-66
2023/04/13 04:01:25;;;;;;;2.72;1.42;;;6.10;99.90;;;;;;5102977;27;20486;-69
2023/04/13 04:03:54;;;;;;;2.58;1.50;;;6.10;99.90;;;;;;5104089;28;20051;-67
2023/04/13 04:06:20;;;;;;;2.25;1.67;;;6.10;99.90;;;;;;5110549;27;20043;-69
2023/04/13 04:08:48;;;;;;;2.70;1.83;;;6.10;99.90;;;;;;5108870;28;20028;-70
2023/04/13 04:11:16;;;;;;;2.75;1.70;;;6.00;99.90;;;;;;5103458;27;20054;-67
2023/04/13 04:13:42;;;;;;;3.13;1.83;;;6.00;99.90;;;;;;5122015;27;21433;-66
2023/04/13 04:16:10;;;;;;;3.03;2.10;;;6.00;99.90;;;;;;5126391;27;20033;-68
2023/04/13 04:18:36;;;;;;;3.10;2.10;;;6.00;99.90;;;;;;5105857;27;20043;-66
2023/04/13 04:21:02;;;;;;;3.35;1.90;;;5.90;99.90;;;;;;5113074;27;20634;-69
2023/04/13 04:23:28;;;;;;;6.75;2.10;;;5.90;99.90;;;;;;5104280;27;20049;-66
2023/04/13 04:25:54;;;;;;;4.20;2.13;;;5.90;99.90;;;;;;5104692;27;20103;-68
2023/04/13 04:28:20;;;;;;;4.57;2.15;;;5.80;99.90;;;;;;5104072;27;20039;-67
2023/04/13 04:30:53;;;;;;;4.07;2.10;;;5.80;99.90;;;;;;5107900;27;20042;-69
2023/04/13 04:33:23;;;;;;;3.42;2.33;;;5.80;99.90;;;;;;5108856;27;20057;-71
2023/04/13 04:35:50;;;;;;;3.38;2.33;;;5.70;99.90;;;;;;5113312;27;20054;-68
2023/04/13 04:38:16;;;;;;;3.13;2.28;;;5.70;99.90;;;;;;5108728;27;20031;-66
2023/04/13 04:40:45;;;;;;;3.88;2.55;;;5.70;99.90;;;;;;5108592;27;20527;-69
2023/04/13 04:43:14;;;;;;;4.63;2.80;;;5.60;99.90;;;;;;5105740;27;20057;-69
2023/04/13 04:45:45;;;;;;;3.95;3.28;;;5.60;99.90;;;;;;5108414;27;20039;-67
2023/04/13 04:48:12;;;;;;;4.13;3.00;;;5.60;99.90;;;;;;5116960;27;20603;-68
2023/04/13 04:50:38;;;;;;;5.07;3.00;;;5.60;99.90;;;;;;5108719;27;20062;-68
2023/04/13 04:53:05;;;;;;;5.47;2.92;;;5.60;99.90;;;;;;5109257;27;20043;-69
2023/04/13 04:55:31;;;;;;;7.30;2.90;;;5.50;99.90;;;;;;5104139;27;20031;-69
2023/04/13 04:57:56;;;;;;;3.88;3.17;;;5.50;99.90;;;;;;5105944;27;20140;-66
2023/04/13 05:00:25;;;;;;;4.22;3.03;;;5.50;99.90;;;;;;5109765;27;20138;-69
2023/04/13 05:02:51;;;;;;;5.60;3.70;;;5.50;99.90;;;;;;5112920;27;20054;-67
2023/04/13 05:05:17;;;;;;;4.72;3.17;;;5.40;99.90;;;;;;5118012;27;20034;-69
2023/04/13 05:07:43;;;;;;;4.53;3.15;;;5.40;99.90;;;;;;5115623;27;20465;-68
2023/04/13 05:10:09;;;;;;;5.47;3.00;;;5.40;99.90;;;;;;5112228;27;20068;-66
2023/04/13 05:12:35;;;;;;;5.55;3.17;;;5.40;99.90;;;;;;5114471;27;20042;-67
2023/04/13 05:15:01;;;;;;;5.10;3.65;;;5.50;99.90;;;;;;5113537;27;20035;-70
2023/04/13 05:17:27;;;;;;;4.68;3.55;;;5.50;99.90;;;;;;5114558;27;20078;-67
2023/04/13 05:19:53;;;;;;;6.88;3.33;;;5.60;99.90;;;;;;5111716;27;20378;-66
2023/04/13 05:22:19;;;;;;;5.38;3.30;;;5.60;99.90;;;;;;5101868;27;20035;-69
2023/04/13 05:24:45;;;;;;;6.28;3.88;;;5.60;99.90;;;;;;5107006;27;20050;-67
2023/04/13 05:27:12;;;;;;;7.97;3.17;;;5.60;99.90;;;;;;5107208;27;20402;-69
2023/04/13 05:29:39;;;;;;;4.63;2.90;;;5.60;99.90;;;;;;5111923;27;20138;-66
2023/04/13 05:32:05;;;;;;;6.30;3.10;;;5.70;99.90;;;;;;5112592;27;20070;-70
2023/04/13 05:34:32;;;;;;;7.00;3.17;;;5.70;99.90;;;;;;5115499;27;20043;-67
2023/04/13 05:36:58;;;;;;;9.07;3.20;;;5.80;99.90;;;;;;5116211;27;20054;-69
2023/04/13 05:39:24;;;;;;;4.55;2.63;;;5.80;99.90;;;;;;5115046;27;20031;-67
2023/04/13 05:41:50;;;;;;;7.03;2.70;;;5.80;99.90;;;;;;5111551;27;20046;-67
2023/04/13 05:44:16;;;;;;;5.03;2.47;;;5.90;99.90;;;;;;5146141;27;20078;-67
2023/04/13 05:46:42;;;;;;;6.35;2.72;;;5.90;99.90;;;;;;5097340;27;20454;-68
2023/04/13 05:49:08;;;;;;;5.07;2.63;;;6.00;99.90;;;;;;5116916;27;20046;-68
2023/04/13 05:51:33;;;;;;;7.00;2.80;;;6.00;99.90;;;;;;5098541;27;20095;-70
2023/04/13 05:54:00;;;;;;;6.80;2.80;;;6.10;99.90;;;;;;5113578;27;20425;-66
2023/04/13 05:56:28;;;;;;;8.57;2.53;;;6.20;99.90;;;;;;5114097;27;20039;-66
2023/04/13 05:58:54;;;;;;;5.57;2.90;;;6.20;99.90;;;;;;5113383;27;20167;-69
2023/04/13 06:01:20;;;;;;;7.95;2.95;;;6.20;99.90;;;;;;5120779;27;20042;-68
2023/04/13 06:03:46;;;;;;;7.13;3.63;;;6.30;99.90;;;;;;5109329;27;20107;-67
2023/04/13 06:06:12;;;;;;;9.73;3.60;;;6.30;99.90;;;;;;5115239;27;20038;-68
2023/04/13 06:08:39;;;;;;;6.03;3.10;;;6.30;99.90;;;;;;5115083;27;20050;-67
2023/04/13 06:11:06;;;;;;;4.72;3.20;;;6.30;99.90;;;;;;5114833;27;20508;-69
2023/04/13 06:13:32;;;;;;;8.25;3.40;;;6.30;99.90;;;;;;5115131;27;20091;-66
2023/04/13 06:15:58;;;;;;;7.05;3.35;;;6.40;99.90;;;;;;5114501;27;20051;-66
2023/04/13 06:18:25;;;;;;;5.82;4.00;;;6.50;99.90;;;;;;5115157;27;20050;-65
2023/04/13 06:20:51;;;;;;;6.03;3.05;;;6.60;99.90;;;;;;5132951;27;20047;-69
2023/04/13 06:23:17;;;;;;;9.75;3.50;;;6.80;99.90;;;;;;5114643;27;20049;-66
2023/04/13 06:25:43;;;;;;;5.82;2.85;;;6.90;99.90;;;;;;5114613;27;20486;-68
2023/04/13 06:28:09;;;;;;;4.90;2.50;;;6.90;99.90;;;;;;5114410;27;20043;-68
2023/04/13 06:30:36;;;;;;;9.32;3.00;;;6.90;99.90;;;;;;5114698;27;20058;-70
2023/04/13 06:33:01;;;;;;;5.95;2.60;;;7.00;99.90;;;;;;5109214;27;20047;-70
2023/04/13 06:35:29;;;;;;;6.10;2.63;;;7.00;99.90;;;;;;5134624;27;20366;-67
2023/04/13 06:37:58;;;;;;;4.20;2.25;;;7.00;99.90;;;;;;5134713;27;20396;-69
2023/04/13 06:40:24;;;;;;;7.13;2.40;;;7.00;99.90;;;;;;5135225;27;20078;-66
2023/04/13 06:42:50;;;;;;;4.88;2.60;;;7.00;99.90;;;;;;5134772;27;20122;-67
2023/04/13 06:45:16;;;;;;;6.22;2.60;;;7.00;99.90;;;;;;5134829;27;20074;-69
2023/04/13 06:47:42;;;;;;;6.68;2.20;;;7.00;99.90;;;;;;5134972;27;20070;-70
2023/04/13 06:50:12;;;;;;;6.25;2.40;;;7.00;99.90;;;;;;5134590;27;20400;-67
2023/04/13 06:52:38;;;;;;;6.60;2.67;;;7.00;99.90;;;;;;5134894;27;20031;-65
2023/04/13 06:55:04;;;;;;;6.47;2.53;;;7.10;99.90;;;;;;5134349;27;20054;-66
2023/04/13 06:57:30;;;;;;;7.53;2.60;;;7.10;99.90;;;;;;5134567;27;20365;-68
2023/04/13 06:59:56;;;;;;;8.07;2.60;;;7.10;99.90;;;;;;5134219;27;20050;-69
2023/04/13 07:02:22;;;;;;;7.75;2.70;;;7.10;99.90;;;;;;5134636;27;20091;-69
2023/04/13 07:04:48;;;;;;;14.48;3.65;;;7.10;99.90;;;;;;5134610;27;20042;-71
2023/04/13 07:07:14;;;;;;;5.10;2.45;;;7.20;99.90;;;;;;5131499;27;20038;-68
2023/04/13 07:09:40;;;;;;;6.03;2.33;;;7.20;99.90;;;;;;5113976;27;20114;-69
2023/04/13 07:12:06;;;;;;;6.22;1.83;;;7.40;99.90;;;;;;5113635;27;20047;-67
2023/04/13 07:14:34;;;;;;;4.70;2.15;;;7.50;99.90;;;;;;5097136;27;20031;-68
2023/04/13 07:17:00;;;;;;;8.88;2.20;;;7.60;99.90;;;;;;5096565;27;20114;-69
2023/04/13 07:19:26;;;;;;;5.97;2.72;;;7.60;99.90;;;;;;5113553;27;20115;-70
2023/04/13 07:21:51;;;;;;;8.10;1.80;;;7.60;99.90;;;;;;5113776;27;20497;-67
2023/04/13 07:24:17;;;;;;;9.05;2.40;;;7.60;99.90;;;;;;5113679;27;20047;-65
2023/04/13 07:26:43;;;;;;;5.45;2.13;;;7.50;99.90;;;;;;5113423;27;20039;-68
2023/04/13 07:29:12;;;;;;;8.73;2.35;;;7.50;99.90;;;;;;5113725;27;20053;-68
2023/04/13 07:31:38;;;;;;;6.57;2.03;;;7.50;99.90;;;;;;5113538;27;20095;-66
2023/04/13 07:34:04;;;;;;;9.10;2.25;;;7.50;99.90;;;;;;5113030;27;20079;-69
2023/04/13 07:36:30;;;;;;;6.60;2.53;;;7.50;99.90;;;;;;5113358;27;20043;-67
2023/04/13 07:38:56;;;;;;;5.07;1.88;;;7.60;99.90;;;;;;5113400;27;20038;-69
2023/04/13 07:41:23;;;;;;;3.97;1.70;;;7.60;99.90;;;;;;5113093;27;20047;-67
2023/04/13 07:43:49;;;;;;;3.50;1.58;;;7.60;99.90;;;;;;5113322;27;20039;-68
2023/04/13 07:46:15;;;;;;;5.63;1.90;;;7.70;99.90;;;;;;5131231;27;20076;-68
2023/04/13 07:48:41;;;;;;;6.45;1.90;;;7.70;99.90;;;;;;5113067;27;20031;-70
2023/04/13 07:51:16;;;;;;;5.13;1.52;;;7.90;99.90;;;;;;5112808;27;20041;-70
2023/04/13 07:53:41;;;;;;;4.28;1.42;;;7.90;99.90;;;;;;5113326;27;20110;-69
2023/04/13 07:56:07;;;;;;;2.85;1.45;;;7.90;99.90;;;;;;5112989;27;20566;-66
2023/04/13 07:58:33;;;;;;;3.05;1.13;;;8.00;99.90;;;;;;5113054;27;20509;-67
2023/04/13 08:00:58;;;;;;;6.50;1.63;;;8.00;99.90;;;;;;5112758;27;20371;-68
2023/04/13 08:03:24;;;;;;;5.40;1.13;;;8.10;99.90;;;;;;5113176;27;20065;-69
2023/04/13 08:05:50;;;;;;;5.05;1.40;;;8.20;99.90;;;;;;5113017;28;20031;-70
2023/04/13 08:08:16;;;;;;;4.78;1.73;;;8.10;99.90;;;;;;5095326;27;20051;-68
2023/04/13 08:10:42;;;;;;;4.82;1.30;;;8.30;99.90;;;;;;5113239;28;20043;-66
2023/04/13 08:13:07;;;;;;;2.55;0.90;;;8.40;99.90;;;;;;5113122;27;20076;-70
2023/04/13 08:15:33;;;;;;;2.90;0.70;;;8.60;99.90;;;;;;5112760;27;20035;-68
2023/04/13 08:17:59;;;;;;;2.75;1.42;;;8.50;99.90;;;;;;5112826;28;20043;-68
2023/04/13 08:20:24;;;;;;;4.07;1.00;;;8.40;99.90;;;;;;5112643;27;20076;-69
2023/04/13 08:22:51;;;;;;;6.10;1.17;;;8.30;99.90;;;;;;5113009;28;20042;-67
2023/04/13 08:25:16;;;;;;;3.50;1.00;;;8.10;99.90;;;;;;5112671;27;20047;-68
2023/04/13 08:27:42;;;;;;;4.47;1.17;;;8.00;99.90;;;;;;5113189;28;20038;-69
2023/04/13 08:30:10;;;;;;;4.90;1.45;;;7.80;99.90;;;;;;5095716;27;20035;-67
2023/04/13 08:32:36;;;;;;;4.32;1.65;;;7.70;99.90;;;;;;5112437;27;20039;-66
2023/04/13 08:35:05;;;;;;;6.93;1.42;;;7.70;99.90;;;;;;5112837;28;20035;-67
2023/04/13 08:37:32;;;;;;;3.90;1.50;;;7.70;99.90;;;;;;5112643;27;20038;-69
2023/04/13 08:39:59;;;;;;;3.42;1.80;;;7.80;99.90;;;;;;5112986;28;20122;-65
2023/04/13 08:42:29;;;;;;;4.18;1.40;;;7.90;99.90;;;;;;5112519;27;20039;-69
2023/04/13 08:44:58;;;;;;;5.38;1.63;;;8.00;99.90;;;;;;5131109;27;20109;-69
2023/04/13 08:47:27;;;;;;;4.60;1.60;;;8.00;99.90;;;;;;5112416;27;20071;-69
2023/04/13 08:50:01;;;;;;;6.20;1.20;;;8.00;99.90;;;;;;5112692;28;20050;-66
2023/04/13 08:52:27;;;;;;;3.10;1.00;;;7.90;99.90;;;;;;5112271;27;20057;-68
2023/04/13 08:54:57;;;;;;;4.15;1.33;;;7.90;99.90;;;;;;5112704;28;20035;-68
2023/04/13 08:57:23;;;;;;;3.25;1.20;;;7.90;99.90;;;;;;5112506;27;20487;-70
2023/04/13 08:59:51;;;;;;;2.88;1.13;;;8.20;99.90;;;;;;5115487;27;20472;-68
2023/04/13 09:02:27;;;;;;;7.82;2.28;;;8.70;99.90;;;;;;5116362;27;20096;-65
2023/04/13 09:04:56;;;;;;;4.90;1.40;;;9.00;99.90;;;;;;5116665;27;20474;-66
2023/04/13 09:07:31;;;;;;;4.00;1.25;;;9.10;99.90;;;;;;5116144;27;20043;-67
2023/04/13 09:09:58;;;;;;;5.53;1.45;;;8.90;99.90;;;;;;5116316;27;20377;-67
2023/04/13 09:12:25;;;;;;;5.63;1.30;;;8.70;99.90;;;;;;5115994;27;20097;-69
2023/04/13 09:14:51;;;;;;;1.80;0.70;;;8.40;99.90;;;;;;5116129;27;20038;-67
2023/04/13 09:17:24;;;;;;;3.60;0.50;;;8.10;99.90;;;;;;5116117;27;20035;-67
2023/04/13 09:19:50;;;;;;;2.22;0.50;;;8.00;99.90;;;;;;5116048;27;20042;-66
2023/04/13 09:22:16;;;;;;;1.35;0.35;;;7.90;99.90;;;;;;5115962;27;20031;-68
2023/04/13 09:24:41;;;;;;;3.38;0.60;;;7.70;99.90;;;;;;5115607;27;20466;-69
2023/04/13 09:27:22;;;;;;;3.20;0.50;;;7.60;99.90;;;;;;5116107;27;20038;-67
2023/04/13 09:29:52;;;;;;;3.17;0.60;;;7.40;99.90;;;;;;5115872;27;20054;-66
2023/04/13 09:32:25;;;;;;;3.17;0.60;;;7.40;99.90;;;;;;5115853;27;20062;-67
2023/04/13 09:35:04;;;;;;;3.38;0.70;;;7.50;99.90;;;;;;5133977;27;20071;-68
2023/04/13 09:37:35;;;;;;;2.35;0.85;;;8.00;99.90;;;;;;5115478;27;20071;-70
2023/04/13 09:40:10;;;;;;;3.63;0.70;;;8.50;99.90;;;;;;5115638;27;20052;-67
2023/04/13 09:42:40;;;;;;;4.38;0.80;;;9.10;99.90;;;;;;5115365;27;20131;-70
2023/04/13 09:45:07;;;;;;;3.67;0.93;;;9.60;99.90;;;;;;5133919;27;20118;-69
2023/04/13 09:47:39;;;;;;;6.18;1.35;;;10.00;99.90;;;;;;5115168;27;20233;-69
2023/04/13 09:50:17;;;;;;;4.57;1.17;;;10.30;99.90;;;;;;5115588;27;20100;-66
2023/04/13 09:52:46;;;;;;;4.65;1.10;;;10.60;99.90;;;;;;5115452;27;20046;-66
2023/04/13 09:55:16;;;;;;;4.07;1.00;;;10.40;99.90;;;;;;5115353;27;20039;-68
2023/04/13 09:57:42;;;;;;;3.92;0.93;;;10.50;99.90;;;;;;5115248;27;20527;-70
2023/04/13 10:00:13;;;;;;;8.13;1.48;;;10.50;99.90;;;;;;5115024;27;20090;-69
2023/04/13 10:02:40;;;;;;;8.63;1.48;;;10.20;99.90;;;;;;5115090;27;20035;-67
2023/04/13 10:05:08;;;;;;;8.15;1.85;;;10.10;99.90;;;;;;5115265;27;20035;-69
2023/04/13 10:07:36;;;;;;;3.45;0.90;;;10.00;99.90;;;;;;5115052;27;20046;-66
2023/04/13 10:10:02;;;;;;;1.70;0.60;;;9.70;99.90;;;;;;5114182;27;20035;-71
2023/04/13 10:12:31;;;;;;;3.20;0.80;;;9.20;99.90;;;;;;5114877;27;20114;-69
2023/04/13 10:15:25;;;;;;;5.40;1.10;;;8.90;99.90;;;;;;5097597;27;20047;-67
2023/04/13 10:18:02;;;;;;;8.90;1.58;;;8.90;99.90;;;;;;5114084;27;20031;-69
2023/04/13 10:20:29;;;;;;;9.57;2.50;;;9.20;99.90;;;;;;5114954;27;20118;-70
2023/04/13 10:22:55;;;;;;;5.25;1.60;;;9.70;99.90;;;;;;5114591;27;20031;-69
2023/04/13 10:25:21;;;;;;;7.85;1.60;;;10.20;99.90;;;;;;5115002;27;20039;-70
2023/04/13 10:27:56;;;;;;;8.05;1.70;;;10.40;99.90;;;;;;5114438;27;20417;-67
2023/04/13 10:30:22;;;;;;;9.70;2.28;;;10.30;99.90;;;;;;5097895;27;20089;-66
2023/04/13 10:32:48;;;;;;;9.80;2.05;;;10.30;99.90;;;;;;5114714;27;20427;-67
2023/04/13 10:35:14;;;;;;;9.18;2.17;;;10.70;99.90;;;;;;5114893;27;20126;-65
2023/04/13 10:37:42;;;;;;;8.80;1.63;;;10.90;99.90;;;;;;5114387;27;20405;-69
2023/04/13 10:40:13;;;;;;;10.20;2.53;;;11.30;99.90;;;;;;5114287;27;20393;-69
2023/04/13 10:42:46;;;;;;;12.13;2.38;;;11.20;99.90;;;;;;5114405;27;20039;-68
2023/04/13 10:45:26;;;;;;;14.73;2.08;;;11.10;99.90;;;;;;5114664;27;20043;-65
2023/04/13 10:47:57;;;;;;;8.27;1.90;;;11.20;99.90;;;;;;5113904;27;20203;-67
2023/04/13 10:50:25;;;;;;;10.23;1.95;;;11.10;99.90;;;;;;5114326;27;20039;-69
2023/04/13 10:52:54;;;;;;;8.63;1.88;;;11.20;99.90;;;;;;5114400;27;20152;-68
2023/04/13 10:55:22;;;;;;;11.55;2.20;;;11.30;99.90;;;;;;5114389;27;20043;-68
2023/04/13 10:57:48;;;;;;;8.60;1.65;;;11.30;99.90;;;;;;5097001;27;20131;-67
2023/04/13 11:00:20;;;;;;;9.30;1.80;;;11.40;99.90;;;;;;5113748;27;20096;-69
2023/04/13 11:02:48;;;;;;;7.70;1.70;;;11.20;99.90;;;;;;5113950;27;20462;-67
2023/04/13 11:05:16;;;;;;;9.35;1.52;;;11.00;99.90;;;;;;5113925;27;20032;-66
2023/04/13 11:07:44;;;;;;;6.57;1.95;;;10.80;99.90;;;;;;5113823;27;20047;-67
2023/04/13 11:10:10;;;;;;;9.45;1.50;;;10.70;99.90;;;;;;5113673;27;20084;-68
2023/04/13 11:12:35;;;;;;;10.73;2.17;;;10.50;99.90;;;;;;5113931;27;20047;-67
2023/04/13 11:15:01;;;;;;;9.23;1.98;;;10.40;99.90;;;;;;5113484;27;20147;-69
2023/04/13 11:17:27;;;;;;;9.43;1.92;;;10.30;99.90;;;;;;5096504;27;20043;-69
2023/04/13 11:19:54;;;;;;;7.93;1.63;;;10.20;99.90;;;;;;5113761;27;20035;-71
2023/04/13 11:22:22;;;;;;;8.68;1.85;;;10.30;99.90;;;;;;5113595;27;20042;-69
2023/04/13 11:24:49;;;;;;;8.65;2.47;;;10.40;99.90;;;;;;5113617;27;20039;-69
2023/04/13 11:27:25;;;;;;;13.10;2.58;;;10.50;99.90;;;;;;5113783;27;20107;-69
2023/04/13 11:30:05;;;;;;;6.15;1.63;;;10.60;99.90;;;;;;5096098;27;20037;-67
2023/04/13 11:32:36;;;;;;;12.23;2.78;;;10.60;99.90;;;;;;5113766;27;20031;-70
2023/04/13 11:35:10;;;;;;;13.40;2.00;;;10.60;99.90;;;;;;5113104;27;20045;-69
2023/04/13 11:37:45;;;;;;;8.88;1.90;;;10.50;99.90;;;;;;5113477;27;20047;-68
2023/04/13 11:40:20;;;;;;;10.85;2.75;;;10.30;99.90;;;;;;5113051;27;20100;-69
2023/04/13 11:42:54;;;;;;;7.22;1.58;;;10.30;99.90;;;;;;5113373;27;20031;-69
2023/04/13 11:45:28;;;;;;;11.35;1.98;;;10.10;99.90;;;;;;5113105;27;20066;-68
2023/04/13 11:47:55;;;;;;;11.60;2.25;;;10.00;99.90;;;;;;5113301;27;20035;-68
2023/04/13 11:50:22;;;;;;;7.03;1.55;;;9.90;99.90;;;;;;5113143;27;20474;-70
2023/04/13 11:52:50;;;;;;;13.02;2.30;;;9.80;99.90;;;;;;5113193;27;20096;-68
2023/04/13 11:55:17;;;;;;;10.60;2.25;;;9.90;99.90;;;;;;5111543;27;20035;-69
2023/04/13 11:57:44;;;;;;;11.13;2.15;;;10.00;99.90;;;;;;5113124;28;20031;-66
2023/04/13 12:00:22;;;;;;;8.80;1.70;;;10.20;99.90;;;;;;5131082;27;20107;-69
2023/04/13 12:02:50;;;;;;;10.98;1.77;;;10.30;99.90;;;;;;5112393;28;20039;-66
2023/04/13 12:05:23;;;;;;;11.15;1.60;;;10.40;99.90;;;;;;5112471;27;20445;-70
2023/04/13 12:07:52;;;;;;;7.50;1.50;;;10.80;99.90;;;;;;5113309;28;20507;-66
2023/04/13 12:10:20;;;;;;;9.48;1.60;;;11.10;99.90;;;;;;5095599;27;20035;-68
2023/04/13 12:12:54;;;;;;;8.32;1.70;;;11.40;99.90;;;;;;5113124;28;20031;-67
2023/04/13 12:15:24;;;;;;;9.95;1.80;;;11.50;99.90;;;;;;5112587;27;20122;-67
2023/04/13 12:17:56;;;;;;;8.60;1.75;;;11.20;99.90;;;;;;5112894;28;20454;-68
2023/04/13 12:20:22;;;;;;;7.13;1.30;;;11.10;99.90;;;;;;5112770;27;20027;-68
2023/04/13 12:22:48;;;;;;;8.48;1.40;;;11.00;99.90;;;;;;5112948;28;20035;-68
2023/04/13 12:25:15;;;;;;;6.85;1.30;;;11.10;99.90;;;;;;5112619;27;20092;-68
2023/04/13 12:27:41;;;;;;;7.93;1.73;;;11.00;99.90;;;;;;5113045;28;20114;-68
2023/04/13 12:30:15;;;;;;;9.23;1.80;;;10.70;99.90;;;;;;5095499;27;20402;-69
2023/04/13 12:32:52;;;;;;;14.65;2.10;;;10.60;99.90;;;;;;5095763;27;20116;-70
2023/04/13 12:35:20;;;;;;;11.63;2.20;;;10.60;99.90;;;;;;5116769;27;20039;-68
2023/04/13 12:37:47;;;;;;;10.50;1.70;;;10.70;99.90;;;;;;5116854;27;20073;-69
2023/04/13 12:40:14;;;;;;;7.60;1.25;;;10.80;99.90;;;;;;5116857;27;20122;-70
2023/04/13 12:42:42;;;;;;;10.95;1.92;;;10.90;99.90;;;;;;5116712;27;20446;-71
2023/04/13 12:45:08;;;;;;;5.13;1.33;;;11.00;99.90;;;;;;5099615;27;20082;-67
2023/04/13 12:47:35;;;;;;;7.88;1.42;;;11.00;99.90;;;;;;5116696;27;20035;-70
2023/04/13 12:50:05;;;;;;;8.45;2.15;;;10.90;99.90;;;;;;5116784;27;20031;-70
2023/04/13 12:52:31;;;;;;;7.28;1.55;;;11.00;99.90;;;;;;5134940;27;20035;-69
2023/04/13 12:54:58;;;;;;;8.32;1.98;;;11.30;99.90;;;;;;5116482;27;20035;-66
2023/04/13 12:57:23;;;;;;;7.88;2.03;;;11.40;99.90;;;;;;5098758;27;20090;-67
2023/04/13 12:59:49;;;;;;;6.38;1.70;;;11.30;99.90;;;;;;5116308;27;20108;-69